createdAt,value
2018-06-04T00:00:32.542Z,10.50
2018-06-04T00:02:37.345Z,12.07
2018-06-04T00:04:42.024Z,12.03
2018-06-04T00:06:46.694Z,12.43
2018-06-04T00:08:51.305Z,12.80
2018-06-04T00:10:55.991Z,11.43
2018-06-04T00:13:00.631Z,12.10
2018-06-04T00:15:05.369Z,11.90
2018-06-04T00:17:10.222Z,12.20
2018-06-04T00:19:14.909Z,11.17
2018-06-04T00:21:19.205Z,10.77
2018-06-04T00:23:23.977Z,12.50
2018-06-04T00:25:28.664Z,12.53
2018-06-04T00:27:33.298Z,11.20
2018-06-04T00:29:37.964Z,11.60
2018-06-04T00:31:42.701Z,11.93
2018-06-04T00:33:47.325Z,11.67
2018-06-04T00:35:52.046Z,13.47
2018-06-04T00:37:56.811Z,13.30
2018-06-04T00:40:01.165Z,12.07
2018-06-04T00:42:05.899Z,12.93
2018-06-04T00:44:10.574Z,12.07
2018-06-04T00:46:15.336Z,10.73
2018-06-04T00:48:20.091Z,12.63
2018-06-04T00:50:24.775Z,12.47
2018-06-04T00:52:29.391Z,12.47
2018-06-04T00:54:34.017Z,11.40
2018-06-04T00:56:39.042Z,13.17
2018-06-04T00:58:43.838Z,11.77
2018-06-04T01:00:48.841Z,11.60
2018-06-04T01:02:53.574Z,12.40
2018-06-04T01:04:58.239Z,12.10
2018-06-04T01:07:03.039Z,12.80
2018-06-04T01:09:09.017Z,14.07
2018-06-04T01:11:13.843Z,11.50
2018-06-04T01:13:18.573Z,13.20
2018-06-04T01:15:23.327Z,12.60
2018-06-04T01:17:28.056Z,13.23
2018-06-04T01:19:32.851Z,13.10
2018-06-04T01:21:37.567Z,11.90
2018-06-04T01:23:42.251Z,13.77
2018-06-04T01:25:46.922Z,13.17
2018-06-04T01:27:51.554Z,13.40
2018-06-04T01:29:56.165Z,13.30
2018-06-04T01:32:00.895Z,14.90
2018-06-04T01:34:05.610Z,12.40
2018-06-04T01:36:10.414Z,15.17
2018-06-04T01:38:15.066Z,12.67
2018-06-04T01:40:19.743Z,12.97
2018-06-04T01:42:24.432Z,13.40
2018-06-04T01:44:29.245Z,14.00
2018-06-04T01:46:33.942Z,15.70
2018-06-04T01:48:38.657Z,14.63
2018-06-04T01:50:43.361Z,14.10
2018-06-04T01:52:48.060Z,14.50
2018-06-04T01:54:52.707Z,15.10
2018-06-04T01:56:57.491Z,14.67
2018-06-04T01:59:02.215Z,13.70
2018-06-04T02:01:06.888Z,16.30
2018-06-04T02:03:11.650Z,13.10
2018-06-04T02:05:16.416Z,14.83
2018-06-04T02:07:21.105Z,13.80
2018-06-04T02:09:25.733Z,14.47
2018-06-04T02:11:30.371Z,14.77
2018-06-04T02:13:34.975Z,13.53
2018-06-04T02:15:39.569Z,14.43
2018-06-04T02:17:44.186Z,14.60
2018-06-04T02:19:48.911Z,14.60
2018-06-04T02:21:53.565Z,13.67
2018-06-04T02:23:58.230Z,13.53
2018-06-04T02:26:02.886Z,14.77
2018-06-04T02:28:07.570Z,13.17
2018-06-04T02:30:12.333Z,14.10
2018-06-04T02:32:17.053Z,12.67
2018-06-04T02:34:21.709Z,13.60
2018-06-04T02:36:26.411Z,13.60
2018-06-04T02:38:31.102Z,12.87
2018-06-04T02:40:35.732Z,11.90
2018-06-04T02:42:40.420Z,13.97
2018-06-04T02:44:45.112Z,12.87
2018-06-04T02:46:49.720Z,12.77
2018-06-04T02:48:54.368Z,12.50
2018-06-04T02:51:00.014Z,12.97
2018-06-04T02:53:04.670Z,14.67
2018-06-04T02:55:09.336Z,13.13
2018-06-04T02:57:14.012Z,12.87
2018-06-04T02:59:18.736Z,14.57
2018-06-04T03:01:23.582Z,12.20
2018-06-04T03:03:28.280Z,13.17
2018-06-04T03:05:32.979Z,12.30
2018-06-04T03:07:37.607Z,13.40
2018-06-04T03:09:42.283Z,14.23
2018-06-04T03:11:46.961Z,12.10
2018-06-04T03:13:51.633Z,12.23
2018-06-04T03:15:56.355Z,13.00
2018-06-04T03:18:01.024Z,12.80
2018-06-04T03:20:05.792Z,14.00
2018-06-04T03:22:10.640Z,13.27
2018-06-04T03:24:15.271Z,12.87
2018-06-04T03:26:20.028Z,14.53
2018-06-04T03:28:24.681Z,11.50
2018-06-04T03:30:29.513Z,14.17
2018-06-04T03:32:34.206Z,13.40
2018-06-04T03:34:38.977Z,13.27
2018-06-04T03:36:43.647Z,13.80
2018-06-04T03:38:48.313Z,14.20
2018-06-04T03:40:52.955Z,13.70
2018-06-04T03:42:57.616Z,13.40
2018-06-04T03:45:02.301Z,13.80
2018-06-04T03:47:07.363Z,15.47
2018-06-04T03:49:11.694Z,16.03
2018-06-04T03:51:16.535Z,15.47
2018-06-04T03:53:21.476Z,16.77
2018-06-04T03:55:26.230Z,16.50
2018-06-04T03:57:30.896Z,14.40
2018-06-04T03:59:35.603Z,15.40
2018-06-04T04:01:40.241Z,15.87
2018-06-04T04:03:44.900Z,15.60
2018-06-04T04:05:49.520Z,14.83
2018-06-04T04:07:54.301Z,15.43
2018-06-04T04:09:59.043Z,15.87
2018-06-04T04:12:03.971Z,15.97
2018-06-04T04:14:08.785Z,16.00
2018-06-04T04:16:13.428Z,16.17
2018-06-04T04:18:18.208Z,16.10
2018-06-04T04:20:23.206Z,15.20
2018-06-04T04:22:27.888Z,17.43
2018-06-04T04:24:32.506Z,15.83
2018-06-04T04:26:37.136Z,15.13
2018-06-04T04:28:41.918Z,17.63
2018-06-04T04:30:46.576Z,15.70
2018-06-04T04:32:51.311Z,17.53
2018-06-04T04:34:56.172Z,14.80
2018-06-04T04:37:01.128Z,16.77
2018-06-04T04:39:09.519Z,17.47
2018-06-04T04:41:14.322Z,17.37
2018-06-04T04:43:19.045Z,16.83
2018-06-04T04:45:23.871Z,16.50
2018-06-04T04:47:28.589Z,16.80
2018-06-04T04:49:33.258Z,16.80
2018-06-04T04:51:38.003Z,15.70
2018-06-04T04:53:42.903Z,16.90
2018-06-04T04:55:47.775Z,16.60
2018-06-04T04:57:52.522Z,15.47
2018-06-04T04:59:57.282Z,17.20
2018-06-04T05:02:02.007Z,17.67
2018-06-04T05:04:06.885Z,15.33
2018-06-04T05:06:11.679Z,17.57
2018-06-04T05:08:16.366Z,17.20
2018-06-04T05:10:21.095Z,17.30
2018-06-04T05:12:25.972Z,17.10
2018-06-04T05:14:30.743Z,17.93
2018-06-04T05:16:35.538Z,17.40
2018-06-04T05:18:40.324Z,17.73
2018-06-04T05:20:45.026Z,16.17
2018-06-04T05:22:49.696Z,16.50
2018-06-04T05:24:54.499Z,17.30
2018-06-04T05:26:59.319Z,18.60
2018-06-04T05:29:04.122Z,17.13
2018-06-04T05:31:09.063Z,16.30
2018-06-04T05:33:13.863Z,18.80
2018-06-04T05:35:18.579Z,17.80
2018-06-04T05:37:23.556Z,15.97
2018-06-04T05:39:28.344Z,15.57
2018-06-04T05:41:33.207Z,16.90
2018-06-04T05:43:38.406Z,15.90
2018-06-04T05:45:43.150Z,16.10
2018-06-04T05:47:47.976Z,17.80
2018-06-04T05:49:52.858Z,16.53
2018-06-04T05:51:57.574Z,16.60
2018-06-04T05:54:02.287Z,16.93
2018-06-04T05:56:07.175Z,16.93
2018-06-04T05:58:11.894Z,17.40
2018-06-04T06:00:16.696Z,19.03
2018-06-04T06:02:21.485Z,15.83
2018-06-04T06:04:26.249Z,17.70
2018-06-04T06:06:30.998Z,16.40
2018-06-04T06:08:35.705Z,17.67
2018-06-04T06:10:40.467Z,17.30
2018-06-04T06:12:45.274Z,17.17
2018-06-04T06:14:50.062Z,17.53
2018-06-04T06:16:54.849Z,17.67
2018-06-04T06:18:59.698Z,19.30
2018-06-04T06:21:04.529Z,17.50
2018-06-04T06:23:09.317Z,17.77
2018-06-04T06:25:14.065Z,16.77
2018-06-04T06:27:18.771Z,17.60
2018-06-04T06:29:23.658Z,18.00
2018-06-04T06:31:28.438Z,17.40
2018-06-04T06:33:33.233Z,16.27
2018-06-04T06:35:38.016Z,16.43
2018-06-04T06:37:42.855Z,16.60
2018-06-04T06:39:47.657Z,17.10
2018-06-04T06:41:52.373Z,18.83
2018-06-04T06:43:57.135Z,16.87
2018-06-04T06:46:01.971Z,16.70
2018-06-04T06:48:06.788Z,17.63
2018-06-04T06:50:11.580Z,15.50
2018-06-04T06:52:16.456Z,16.60
2018-06-04T06:54:21.124Z,16.10
2018-06-04T06:56:25.880Z,16.70
2018-06-04T06:58:30.936Z,18.30
2018-06-04T07:00:36.140Z,14.87
2018-06-04T07:02:40.858Z,18.00
2018-06-04T07:04:45.957Z,16.67
2018-06-04T07:06:50.702Z,16.57
2018-06-04T07:08:55.399Z,15.13
2018-06-04T07:11:00.163Z,15.80
2018-06-04T07:13:05.011Z,17.90
2018-06-04T07:15:10.153Z,16.03
2018-06-04T07:17:15.308Z,17.83
2018-06-04T07:19:20.645Z,17.60
2018-06-04T07:21:26.356Z,16.80
2018-06-04T07:23:31.496Z,16.87
2018-06-04T07:25:36.716Z,16.50
2018-06-04T07:27:42.114Z,15.00
2018-06-04T07:29:47.235Z,16.07
2018-06-04T07:31:52.548Z,15.23
2018-06-04T07:33:57.572Z,14.47
2018-06-04T07:36:12.169Z,13.90
2018-06-04T07:38:17.306Z,15.10
2018-06-04T07:40:22.687Z,13.17
2018-06-04T07:42:27.639Z,14.03
2018-06-04T07:44:33.244Z,13.47
2018-06-04T07:46:38.053Z,14.87
2018-06-04T07:48:43.158Z,14.37
2018-06-04T07:50:56.502Z,15.43
2018-06-04T07:53:01.223Z,12.90
2018-06-04T07:55:06.241Z,17.07
2018-06-04T07:57:11.399Z,13.03
2018-06-04T07:59:16.570Z,14.67
2018-06-04T08:01:21.913Z,15.17
2018-06-04T08:03:26.675Z,13.30
2018-06-04T08:05:31.570Z,13.30
2018-06-04T08:07:36.545Z,13.37
2018-06-04T08:09:41.264Z,13.13
2018-06-04T08:11:46.078Z,12.90
2018-06-04T08:13:50.880Z,13.27
2018-06-04T08:15:55.879Z,15.10
2018-06-04T08:18:00.997Z,12.77
2018-06-04T08:20:06.580Z,12.60
2018-06-04T08:22:11.545Z,12.30
2018-06-04T08:24:16.836Z,11.53
2018-06-04T08:26:21.751Z,13.23
2018-06-04T08:28:26.805Z,13.30
2018-06-04T08:30:32.007Z,13.43
2018-06-04T08:32:36.990Z,11.60
2018-06-04T08:34:41.887Z,12.60
2018-06-04T08:36:46.670Z,11.80
2018-06-04T08:38:51.620Z,10.67
2018-06-04T08:40:56.502Z,10.67
2018-06-04T08:43:01.475Z,9.50
2018-06-04T08:45:06.841Z,10.40
2018-06-04T08:47:11.709Z,9.03
2018-06-04T08:49:16.548Z,8.60
2018-06-04T08:51:21.426Z,8.00
2018-06-04T08:53:26.419Z,9.27
2018-06-04T08:55:31.297Z,9.70
2018-06-04T08:57:36.286Z,9.40
2018-06-04T08:59:41.251Z,10.00
2018-06-04T09:01:47.404Z,8.27
2018-06-04T09:03:52.190Z,8.43
2018-06-04T09:08:11.070Z,8.10
2018-06-04T09:10:15.794Z,8.33
2018-06-04T09:12:20.459Z,9.13
2018-06-04T09:14:25.197Z,8.27
2018-06-04T09:16:29.877Z,7.93
2018-06-04T09:18:34.496Z,9.17
2018-06-04T09:20:39.251Z,6.60
2018-06-04T09:22:44.057Z,7.47
2018-06-04T09:24:48.954Z,6.63
2018-06-04T09:26:54.143Z,6.53
2018-06-04T09:28:59.074Z,7.23
2018-06-04T09:31:04.293Z,7.13
2018-06-04T09:33:12.199Z,7.17
2018-06-04T09:35:17.137Z,6.60
2018-06-04T09:37:22.004Z,6.90
2018-06-04T09:39:27.313Z,6.20
2018-06-04T09:41:32.199Z,7.10
2018-06-04T09:43:37.452Z,7.40
2018-06-04T09:45:42.175Z,7.70
2018-06-04T09:47:47.086Z,7.13
2018-06-04T09:49:51.933Z,6.93
2018-06-04T09:51:56.788Z,7.50
2018-06-04T09:54:01.799Z,7.07
2018-06-04T09:56:06.722Z,6.80
2018-06-04T09:58:11.486Z,6.90
2018-06-04T10:00:21.371Z,7.60
2018-06-04T10:02:26.555Z,8.13
2018-06-04T10:04:31.659Z,7.80
2018-06-04T10:06:36.683Z,7.23
2018-06-04T10:08:42.159Z,7.57
2018-06-04T10:10:47.129Z,6.57
2018-06-04T10:12:51.929Z,6.70
2018-06-04T10:14:57.194Z,7.67
2018-06-04T10:17:01.990Z,8.07
2018-06-04T10:19:07.652Z,7.20
2018-06-04T10:21:12.471Z,5.90
2018-06-04T10:23:17.251Z,6.70
2018-06-04T10:25:22.042Z,7.43
2018-06-04T10:27:26.813Z,7.20
2018-06-04T10:29:31.704Z,6.90
2018-06-04T10:31:36.480Z,6.40
2018-06-04T10:33:41.195Z,6.23
2018-06-04T10:35:45.992Z,6.27
2018-06-04T10:37:50.628Z,6.27
2018-06-04T10:39:55.289Z,5.67
2018-06-04T10:41:59.902Z,5.30
2018-06-04T10:44:05.045Z,5.03
2018-06-04T10:46:09.862Z,3.93
2018-06-04T10:48:14.539Z,6.00
2018-06-04T10:50:19.323Z,6.77
2018-06-04T10:52:24.222Z,5.00
2018-06-04T10:54:29.051Z,5.30
2018-06-04T10:56:33.757Z,6.30
2018-06-04T10:58:38.478Z,6.07
2018-06-04T11:00:43.119Z,6.13
2018-06-04T11:02:47.914Z,6.10
2018-06-04T11:04:52.597Z,5.90
2018-06-04T11:06:57.386Z,5.00
2018-06-04T11:09:02.038Z,4.90
2018-06-04T11:11:06.778Z,6.70
2018-06-04T11:13:11.525Z,6.27
2018-06-04T11:15:16.532Z,6.77
2018-06-04T11:17:21.494Z,5.70
2018-06-04T11:19:26.508Z,5.83
2018-06-04T11:21:31.313Z,6.93
2018-06-04T11:23:36.117Z,7.00
2018-06-04T11:25:40.963Z,6.10
2018-06-04T11:27:45.675Z,6.47
2018-06-04T11:29:50.376Z,6.20
2018-06-04T11:31:55.068Z,6.20
2018-06-04T11:33:59.740Z,6.27
2018-06-04T11:36:04.813Z,7.73
2018-06-04T11:38:13.001Z,6.63
2018-06-04T11:40:18.565Z,7.23
2018-06-04T11:42:23.342Z,7.47
2018-06-04T11:44:28.035Z,6.70
2018-06-04T11:46:32.793Z,6.50
2018-06-04T11:48:37.621Z,5.40
2018-06-04T11:50:42.685Z,6.57
2018-06-04T11:52:47.678Z,6.03
2018-06-04T11:54:56.091Z,6.93
2018-06-04T11:57:00.879Z,6.43
2018-06-04T11:59:06.294Z,6.93
2018-06-04T12:01:11.580Z,6.50
2018-06-04T12:03:16.493Z,6.20
2018-06-04T12:05:21.316Z,6.67
2018-06-04T12:07:26.041Z,6.00
2018-06-04T12:09:30.852Z,5.83
2018-06-04T12:11:35.932Z,6.40
2018-06-04T12:13:40.741Z,6.20
2018-06-04T12:15:45.614Z,6.63
2018-06-04T12:17:57.945Z,6.27
2018-06-04T12:20:02.619Z,5.60
2018-06-04T12:22:07.443Z,4.80
2018-06-04T12:24:12.161Z,4.83
2018-06-04T12:26:16.971Z,5.77
2018-06-04T12:28:21.812Z,6.50
2018-06-04T12:30:26.471Z,5.67
2018-06-04T12:32:31.211Z,6.37
2018-06-04T12:34:35.950Z,6.03
2018-06-04T12:36:41.179Z,5.23
2018-06-04T12:38:46.078Z,5.57
2018-06-04T12:40:50.920Z,5.17
2018-06-04T12:42:55.797Z,4.53
2018-06-04T12:45:00.522Z,6.27
2018-06-04T12:47:05.369Z,5.37
2018-06-04T12:49:10.145Z,6.70
2018-06-04T12:51:14.951Z,6.30
2018-06-04T12:53:19.583Z,7.30
2018-06-04T12:55:24.354Z,7.70
2018-06-04T12:59:45.464Z,11.10
2018-06-04T13:01:50.291Z,9.30
2018-06-04T13:03:55.286Z,8.73
2018-06-04T13:05:59.965Z,8.20
2018-06-04T13:08:04.665Z,9.00
2018-06-04T13:10:09.370Z,8.43
2018-06-04T13:12:14.130Z,7.73
2018-06-04T13:14:18.875Z,7.00
2018-06-04T13:16:23.707Z,6.20
2018-06-04T13:18:28.480Z,6.80
2018-06-04T13:20:33.456Z,7.70
2018-06-04T13:22:38.402Z,9.33
2018-06-04T13:24:43.174Z,7.10
2018-06-04T13:26:47.999Z,7.50
2018-06-04T13:28:52.869Z,8.40
2018-06-04T13:30:57.739Z,8.60
2018-06-04T13:33:02.635Z,7.60
2018-06-04T13:35:09.301Z,7.90
2018-06-04T13:37:14.265Z,7.80
2018-06-04T13:39:19.238Z,8.60
2018-06-04T13:41:24.190Z,8.70
2018-06-04T13:43:29.112Z,8.30
2018-06-04T13:45:34.019Z,8.50
2018-06-04T13:47:38.844Z,13.37
2018-06-04T13:49:43.666Z,11.50
2018-06-04T13:51:48.653Z,12.50
2018-06-04T13:53:53.497Z,14.10
2018-06-04T13:55:57.920Z,11.27
2018-06-04T13:58:02.886Z,10.60
2018-06-04T14:00:07.932Z,11.27
2018-06-04T14:02:12.723Z,11.90
2018-06-04T14:04:17.768Z,13.83
2018-06-04T14:06:22.521Z,12.40
2018-06-04T14:08:27.513Z,13.13
2018-06-04T14:10:32.299Z,15.00
2018-06-04T14:12:37.239Z,15.63
2018-06-04T14:14:42.135Z,14.40
2018-06-04T14:16:46.953Z,14.33
2018-06-04T14:18:51.808Z,15.43
2018-06-04T14:20:56.679Z,12.17
2018-06-04T14:23:01.554Z,13.13
2018-06-04T14:25:06.470Z,10.50
2018-06-04T14:27:11.405Z,11.80
2018-06-04T14:29:17.893Z,10.63
2018-06-04T14:31:22.870Z,10.50
2018-06-04T14:33:27.658Z,11.70
2018-06-04T14:35:33.256Z,11.20
2018-06-04T14:37:38.205Z,10.50
2018-06-04T14:39:44.876Z,10.80
2018-06-04T14:41:49.941Z,10.60
2018-06-04T14:43:54.893Z,7.97
2018-06-04T14:45:59.787Z,9.87
2018-06-04T14:48:04.780Z,13.13
2018-06-04T14:50:09.657Z,14.70
2018-06-04T14:52:14.575Z,11.30
2018-06-04T14:54:19.611Z,10.90
2018-06-04T14:56:24.520Z,12.80
2018-06-04T14:58:30.204Z,11.10
2018-06-04T15:00:35.230Z,16.30
2018-06-04T15:02:40.204Z,15.27
2018-06-04T15:04:45.177Z,16.53
2018-06-04T15:06:50.059Z,14.97
2018-06-04T15:08:54.946Z,12.10
2018-06-04T15:10:59.723Z,13.83
2018-06-04T15:13:04.771Z,13.50
2018-06-04T15:15:09.585Z,14.00
2018-06-04T15:17:14.443Z,13.73
2018-06-04T15:19:19.263Z,12.80
2018-06-04T15:21:24.046Z,14.50
2018-06-04T15:23:28.927Z,13.87
2018-06-04T15:25:33.895Z,11.70
2018-06-04T15:27:38.672Z,15.20
2018-06-04T15:29:43.536Z,15.50
2018-06-04T15:31:48.385Z,14.50
2018-06-04T15:33:53.277Z,15.77
2018-06-04T15:35:58.148Z,15.07
2018-06-04T15:38:03.070Z,17.20
2018-06-04T15:40:07.879Z,13.80
2018-06-04T15:42:12.831Z,14.70
2018-06-04T15:44:17.738Z,17.63
2018-06-04T15:46:22.652Z,15.03
2018-06-04T15:48:27.583Z,17.80
2018-06-04T15:50:32.395Z,15.17
2018-06-04T15:54:38.579Z,17.20
2018-06-04T15:56:44.870Z,16.03
2018-06-04T15:58:50.172Z,16.73
2018-06-04T16:00:56.239Z,16.47
2018-06-04T16:03:01.287Z,15.60
2018-06-04T16:05:06.756Z,15.60
2018-06-04T16:07:11.603Z,13.00
2018-06-04T16:09:16.535Z,14.40
2018-06-04T16:11:21.253Z,14.23
2018-06-04T16:13:26.184Z,17.53
2018-06-04T16:15:31.143Z,14.60
2018-06-04T16:17:35.972Z,14.23
2018-06-04T16:19:40.849Z,15.33
2018-06-04T16:21:45.838Z,15.90
2018-06-04T16:23:50.874Z,17.70
2018-06-04T16:25:55.908Z,16.43
2018-06-04T16:28:00.800Z,16.20
2018-06-04T16:30:07.559Z,15.20
2018-06-04T16:32:12.316Z,15.50
2018-06-04T16:34:17.030Z,15.40
2018-06-04T16:36:21.694Z,14.80
2018-06-04T16:38:26.404Z,12.70
2018-06-04T16:40:31.094Z,13.40
2018-06-04T16:42:35.841Z,18.80
2018-06-04T16:44:40.619Z,15.60
2018-06-04T16:46:45.378Z,14.60
2018-06-04T16:48:50.077Z,14.47
2018-06-04T16:50:54.769Z,12.93
2018-06-04T16:52:59.662Z,15.47
2018-06-04T16:55:04.563Z,14.20
2018-06-04T16:57:09.247Z,14.07
2018-06-04T16:59:14.448Z,12.97
2018-06-04T17:01:19.238Z,13.13
2018-06-04T17:03:24.135Z,13.40
2018-06-04T17:05:29.050Z,12.33
2018-06-04T17:07:33.869Z,12.27
2018-06-04T17:09:38.764Z,13.40
2018-06-04T17:11:43.618Z,12.60
2018-06-04T17:13:48.352Z,10.87
2018-06-04T17:15:53.467Z,13.27
2018-06-04T17:17:59.218Z,13.63
2018-06-04T17:20:04.116Z,12.67
2018-06-04T17:22:09.160Z,14.07
2018-06-04T17:24:14.054Z,14.20
2018-06-04T17:26:18.833Z,13.10
2018-06-04T17:28:23.508Z,12.30
2018-06-04T17:30:28.373Z,11.40
2018-06-04T17:32:33.154Z,11.60
2018-06-04T17:34:37.849Z,13.90
2018-06-04T17:36:42.677Z,12.03
2018-06-04T17:38:47.562Z,13.33
2018-06-04T17:40:52.372Z,13.17
2018-06-04T17:42:57.142Z,12.70
2018-06-04T17:45:02.267Z,10.87
2018-06-04T17:47:06.995Z,13.33
2018-06-04T17:49:11.797Z,12.23
2018-06-04T17:51:17.097Z,13.20
2018-06-04T17:53:22.036Z,13.70
2018-06-04T17:55:27.712Z,14.83
2018-06-04T17:57:32.685Z,12.90
2018-06-04T17:59:37.498Z,12.50
2018-06-04T18:01:43.140Z,13.70
2018-06-04T18:03:48.716Z,13.07
2018-06-04T18:05:54.805Z,12.40
2018-06-04T18:07:59.745Z,11.00
2018-06-04T18:10:04.891Z,11.13
2018-06-04T18:12:09.891Z,12.03
2018-06-04T18:14:15.144Z,10.93
2018-06-04T18:16:19.925Z,9.77
2018-06-04T18:18:24.840Z,11.10
2018-06-04T18:20:29.681Z,10.37
2018-06-04T18:22:34.352Z,11.00
2018-06-04T18:24:39.413Z,10.60
2018-06-04T18:26:44.187Z,8.47
2018-06-04T18:28:50.326Z,9.73
2018-06-04T18:30:56.415Z,10.40
2018-06-04T18:33:01.933Z,11.97
2018-06-04T18:35:06.401Z,10.37
2018-06-04T18:37:11.628Z,10.20
2018-06-04T18:39:17.154Z,9.80
2018-06-04T18:41:22.638Z,10.33
2018-06-04T18:43:51.990Z,8.10
2018-06-04T18:46:06.682Z,8.23
2018-06-04T18:48:36.114Z,9.30
2018-06-04T18:51:09.628Z,9.53
2018-06-04T18:53:45.788Z,10.30
2018-06-04T18:56:09.861Z,9.30
2018-06-04T18:58:22.115Z,8.40
2018-06-04T19:00:27.172Z,8.43
2018-06-04T19:02:41.140Z,9.00
2018-06-04T19:05:16.575Z,9.90
2018-06-04T19:07:49.621Z,8.80
2018-06-04T19:10:11.475Z,9.50
2018-06-04T19:12:48.910Z,8.70
2018-06-04T19:15:00.479Z,9.60
2018-06-04T19:17:30.596Z,11.07
2018-06-04T19:20:10.960Z,8.73
2018-06-04T19:22:51.067Z,9.27
2018-06-04T19:24:57.108Z,10.20
2018-06-04T19:27:32.912Z,9.30
2018-06-04T19:30:14.414Z,9.20
2018-06-04T19:32:42.254Z,8.73
2018-06-04T19:34:51.165Z,9.03
2018-06-04T19:37:19.002Z,9.80
2018-06-04T19:39:53.418Z,8.97
2018-06-04T19:42:13.184Z,7.80
2018-06-04T19:44:23.620Z,8.70
2018-06-04T19:49:13.219Z,9.80
2018-06-04T19:51:29.029Z,8.60
2018-06-04T19:54:01.375Z,9.17
2018-06-04T19:56:23.994Z,9.90
2018-06-04T19:58:32.185Z,10.00
2018-06-04T20:00:44.349Z,9.00
2018-06-04T20:02:54.171Z,9.23
2018-06-04T20:07:05.510Z,8.60
2018-06-04T20:09:17.989Z,9.90
2018-06-04T20:11:29.680Z,9.90
2018-06-04T20:14:18.708Z,9.30
2018-06-04T20:16:30.478Z,9.00
2018-06-04T20:18:42.068Z,10.40
2018-06-04T20:20:47.102Z,10.10
2018-06-04T20:23:05.001Z,9.23
2018-06-04T20:25:15.545Z,9.13
2018-06-04T20:27:21.116Z,9.97
2018-06-04T20:29:26.203Z,9.30
2018-06-04T20:31:31.079Z,8.70
2018-06-04T20:33:36.099Z,9.30
2018-06-04T20:35:42.111Z,8.30
2018-06-04T20:37:47.191Z,9.93
2018-06-04T20:39:52.273Z,9.37
2018-06-04T20:41:57.120Z,8.93
2018-06-04T20:44:01.925Z,10.27
2018-06-04T20:46:07.084Z,8.70
2018-06-04T20:48:12.230Z,10.90
2018-06-04T20:50:17.032Z,10.80
2018-06-04T20:52:22.041Z,9.77
2018-06-04T20:54:27.042Z,8.90
2018-06-04T20:56:32.120Z,9.40
2018-06-04T20:58:37.808Z,9.97
2018-06-04T21:00:44.687Z,9.70
2018-06-04T21:02:50.301Z,9.40
2018-06-04T21:04:55.400Z,9.93
2018-06-04T21:07:00.230Z,9.60
2018-06-04T21:09:07.812Z,11.33
2018-06-04T21:11:12.714Z,9.90
2018-06-04T21:13:18.133Z,10.30
2018-06-04T21:15:22.946Z,10.97
2018-06-04T21:17:27.853Z,10.50
2018-06-04T21:19:32.875Z,10.73
2018-06-04T21:21:40.134Z,11.77
2018-06-04T21:23:44.888Z,11.47
2018-06-04T21:25:49.684Z,11.50
2018-06-04T21:27:54.523Z,12.13
2018-06-04T21:29:59.342Z,12.10
2018-06-04T21:32:04.206Z,11.63
2018-06-04T21:34:08.996Z,11.50
2018-06-04T21:36:13.825Z,11.77
2018-06-04T21:38:18.628Z,11.83
2018-06-04T21:40:23.376Z,11.07
2018-06-04T21:42:28.192Z,11.77
2018-06-04T21:44:33.047Z,10.80
2018-06-04T21:46:37.820Z,11.73
2018-06-04T21:48:47.955Z,12.63
2018-06-04T21:50:56.455Z,12.67
2018-06-04T21:53:01.237Z,13.10
2018-06-04T21:55:06.149Z,12.70
2018-06-04T21:57:11.250Z,12.77
2018-06-04T21:59:15.996Z,11.80
2018-06-04T22:01:20.762Z,12.57
2018-06-04T22:03:25.821Z,13.10
2018-06-04T22:05:30.868Z,13.17
2018-06-04T22:07:35.912Z,12.97
2018-06-04T22:09:40.758Z,11.97
2018-06-04T22:11:45.746Z,12.13
2018-06-04T22:13:50.846Z,12.17
2018-06-04T22:15:55.633Z,13.33
2018-06-04T22:18:00.401Z,13.30
2018-06-04T22:20:05.278Z,12.73
2018-06-04T22:22:10.013Z,13.17
2018-06-04T22:24:14.742Z,12.13
2018-06-04T22:26:19.568Z,12.77
2018-06-04T22:28:24.348Z,14.40
2018-06-04T22:30:29.425Z,11.50
2018-06-04T22:32:34.365Z,12.73
2018-06-04T22:34:39.202Z,13.10
2018-06-04T22:36:43.915Z,13.60
2018-06-04T22:38:48.721Z,14.10
2018-06-04T22:40:53.440Z,13.27
2018-06-04T22:42:58.191Z,13.37
2018-06-04T22:45:02.997Z,11.40
2018-06-04T22:47:07.787Z,12.90
2018-06-04T22:49:12.467Z,12.80
2018-06-04T22:51:17.166Z,13.60
2018-06-04T22:53:21.858Z,14.03
2018-06-04T22:55:26.613Z,14.33
2018-06-04T22:57:31.483Z,14.83
2018-06-04T22:59:36.123Z,12.80
2018-06-04T23:01:40.947Z,13.57
2018-06-04T23:03:45.746Z,13.27
2018-06-04T23:05:50.519Z,13.70
2018-06-04T23:07:55.262Z,12.87
2018-06-04T23:10:00.030Z,13.27
2018-06-04T23:12:04.794Z,11.47
2018-06-04T23:14:09.507Z,13.17
2018-06-04T23:16:14.369Z,13.87
2018-06-04T23:18:19.117Z,14.90
2018-06-04T23:20:23.932Z,14.27
2018-06-04T23:22:28.739Z,13.10
2018-06-04T23:24:33.517Z,15.23
2018-06-04T23:26:38.193Z,13.80
2018-06-04T23:28:42.869Z,14.57
2018-06-04T23:30:47.569Z,15.57
2018-06-04T23:32:52.210Z,15.37
2018-06-04T23:34:56.922Z,16.77
2018-06-04T23:37:01.684Z,15.10
2018-06-04T23:39:09.322Z,16.03
2018-06-04T23:41:14.039Z,16.17
2018-06-04T23:43:18.791Z,15.80
2018-06-04T23:45:23.428Z,13.47
2018-06-04T23:47:28.266Z,15.17
2018-06-04T23:49:33.030Z,15.93
2018-06-04T23:51:37.746Z,15.77
2018-06-04T23:53:42.486Z,14.53
2018-06-04T23:55:47.171Z,16.20
2018-06-04T23:57:51.896Z,16.20
2018-06-04T23:59:56.681Z,15.83
